sensor_id;sensor_type;location;lat;lon;timestamp;P1;durP1;ratioP1;P2;durP2;ratioP2
52432;SDS011;38352;53.244;6.594;2023-08-01T00:01:48;28.65;;;7.75;;
52432;SDS011;38352;53.244;6.594;2023-08-01T00:04:14;15.43;;;5.38;;
52432;SDS011;38352;53.244;6.594;2023-08-01T00:06:41;17.58;;;6.18;;
52432;SDS011;38352;53.244;6.594;2023-08-01T00:09:07;18.80;;;6.90;;
52432;SDS011;38352;53.244;6.594;2023-08-01T00:11:33;15.35;;;7.13;;
52432;SDS011;38352;53.244;6.594;2023-08-01T00:14:00;17.92;;;6.43;;
52432;SDS011;38352;53.244;6.594;2023-08-01T00:16:26;15.40;;;5.32;;
52432;SDS011;38352;53.244;6.594;2023-08-01T00:18:53;12.65;;;4.65;;
52432;SDS011;38352;53.244;6.594;2023-08-01T00:21:19;12.48;;;4.75;;
52432;SDS011;38352;53.244;6.594;2023-08-01T00:23:48;14.25;;;4.75;;
52432;SDS011;38352;53.244;6.594;2023-08-01T00:26:16;15.02;;;4.47;;
52432;SDS011;38352;53.244;6.594;2023-08-01T00:28:45;12.43;;;4.65;;
52432;SDS011;38352;53.244;6.594;2023-08-01T00:31:11;14.70;;;4.85;;
52432;SDS011;38352;53.244;6.594;2023-08-01T00:33:39;12.93;;;4.97;;
52432;SDS011;38352;53.244;6.594;2023-08-01T00:36:08;11.77;;;4.35;;
52432;SDS011;38352;53.244;6.594;2023-08-01T00:38:37;11.63;;;5.25;;
52432;SDS011;38352;53.244;6.594;2023-08-01T00:41:03;12.10;;;4.95;;
52432;SDS011;38352;53.244;6.594;2023-08-01T00:43:29;14.70;;;6.72;;
52432;SDS011;38352;53.244;6.594;2023-08-01T00:45:58;14.48;;;5.15;;
52432;SDS011;38352;53.244;6.594;2023-08-01T00:48:28;14.13;;;5.13;;
52432;SDS011;38352;53.244;6.594;2023-08-01T00:50:55;12.30;;;5.60;;
52432;SDS011;38352;53.244;6.594;2023-08-01T00:53:24;11.30;;;5.15;;
52432;SDS011;38352;53.244;6.594;2023-08-01T00:55:53;10.95;;;4.80;;
52432;SDS011;38352;53.244;6.594;2023-08-01T00:58:22;11.98;;;4.80;;
52432;SDS011;38352;53.244;6.594;2023-08-01T01:00:48;13.77;;;5.47;;
52432;SDS011;38352;53.244;6.594;2023-08-01T01:03:15;13.40;;;5.03;;
52432;SDS011;38352;53.244;6.594;2023-08-01T01:05:49;12.50;;;5.07;;
52432;SDS011;38352;53.244;6.594;2023-08-01T01:08:21;16.52;;;4.40;;
52432;SDS011;38352;53.244;6.594;2023-08-01T01:10:49;13.27;;;4.88;;
52432;SDS011;38352;53.244;6.594;2023-08-01T01:13:18;14.27;;;5.07;;
52432;SDS011;38352;53.244;6.594;2023-08-01T01:15:44;13.68;;;5.00;;
52432;SDS011;38352;53.244;6.594;2023-08-01T01:18:10;9.45;;;4.50;;
52432;SDS011;38352;53.244;6.594;2023-08-01T01:20:36;9.38;;;4.90;;
52432;SDS011;38352;53.244;6.594;2023-08-01T01:23:05;10.73;;;4.80;;
52432;SDS011;38352;53.244;6.594;2023-08-01T01:25:34;11.63;;;5.03;;
52432;SDS011;38352;53.244;6.594;2023-08-01T01:28:00;9.52;;;4.55;;
52432;SDS011;38352;53.244;6.594;2023-08-01T01:30:29;10.45;;;4.35;;
52432;SDS011;38352;53.244;6.594;2023-08-01T01:32:58;10.82;;;4.30;;
52432;SDS011;38352;53.244;6.594;2023-08-01T01:35:24;12.18;;;4.15;;
52432;SDS011;38352;53.244;6.594;2023-08-01T01:37:53;9.57;;;4.20;;
52432;SDS011;38352;53.244;6.594;2023-08-01T01:40:21;11.23;;;4.47;;
52432;SDS011;38352;53.244;6.594;2023-08-01T01:42:47;10.55;;;4.55;;
52432;SDS011;38352;53.244;6.594;2023-08-01T01:45:14;12.10;;;4.88;;
52432;SDS011;38352;53.244;6.594;2023-08-01T01:47:46;13.15;;;5.35;;
52432;SDS011;38352;53.244;6.594;2023-08-01T01:50:12;8.88;;;4.97;;
52432;SDS011;38352;53.244;6.594;2023-08-01T01:52:40;12.55;;;4.53;;
52432;SDS011;38352;53.244;6.594;2023-08-01T01:55:06;10.85;;;4.88;;
52432;SDS011;38352;53.244;6.594;2023-08-01T01:57:33;11.13;;;4.70;;
52432;SDS011;38352;53.244;6.594;2023-08-01T02:00:01;8.48;;;4.07;;
52432;SDS011;38352;53.244;6.594;2023-08-01T02:02:27;13.80;;;5.70;;
52432;SDS011;38352;53.244;6.594;2023-08-01T02:04:56;11.30;;;4.60;;
52432;SDS011;38352;53.244;6.594;2023-08-01T02:07:23;10.18;;;4.20;;
52432;SDS011;38352;53.244;6.594;2023-08-01T02:09:49;11.50;;;4.25;;
52432;SDS011;38352;53.244;6.594;2023-08-01T02:12:15;13.93;;;5.00;;
52432;SDS011;38352;53.244;6.594;2023-08-01T02:14:41;11.13;;;4.85;;
52432;SDS011;38352;53.244;6.594;2023-08-01T02:17:09;12.15;;;4.63;;
52432;SDS011;38352;53.244;6.594;2023-08-01T02:19:35;12.35;;;5.47;;
52432;SDS011;38352;53.244;6.594;2023-08-01T02:22:04;12.50;;;5.28;;
52432;SDS011;38352;53.244;6.594;2023-08-01T02:24:30;10.18;;;5.05;;
52432;SDS011;38352;53.244;6.594;2023-08-01T02:26:56;14.10;;;5.10;;
52432;SDS011;38352;53.244;6.594;2023-08-01T02:29:23;12.02;;;5.22;;
52432;SDS011;38352;53.244;6.594;2023-08-01T02:31:49;13.48;;;5.35;;
52432;SDS011;38352;53.244;6.594;2023-08-01T02:34:15;13.55;;;5.18;;
52432;SDS011;38352;53.244;6.594;2023-08-01T02:36:41;11.55;;;5.05;;
52432;SDS011;38352;53.244;6.594;2023-08-01T02:39:09;12.85;;;5.78;;
52432;SDS011;38352;53.244;6.594;2023-08-01T02:41:38;11.25;;;5.10;;
52432;SDS011;38352;53.244;6.594;2023-08-01T02:44:06;14.07;;;5.63;;
52432;SDS011;38352;53.244;6.594;2023-08-01T02:46:37;12.45;;;5.80;;
52432;SDS011;38352;53.244;6.594;2023-08-01T02:49:03;8.27;;;4.20;;
52432;SDS011;38352;53.244;6.594;2023-08-01T02:51:29;9.23;;;4.70;;
52432;SDS011;38352;53.244;6.594;2023-08-01T02:53:57;12.55;;;5.10;;
52432;SDS011;38352;53.244;6.594;2023-08-01T02:56:24;8.35;;;3.90;;
52432;SDS011;38352;53.244;6.594;2023-08-01T02:58:50;9.52;;;4.53;;
52432;SDS011;38352;53.244;6.594;2023-08-01T03:01:17;10.18;;;4.80;;
52432;SDS011;38352;53.244;6.594;2023-08-01T03:03:43;10.27;;;4.65;;
52432;SDS011;38352;53.244;6.594;2023-08-01T03:06:11;12.38;;;5.65;;
52432;SDS011;38352;53.244;6.594;2023-08-01T03:08:39;13.07;;;4.80;;
52432;SDS011;38352;53.244;6.594;2023-08-01T03:11:07;11.27;;;4.53;;
52432;SDS011;38352;53.244;6.594;2023-08-01T03:13:34;13.07;;;5.13;;
52432;SDS011;38352;53.244;6.594;2023-08-01T03:16:01;11.38;;;4.90;;
52432;SDS011;38352;53.244;6.594;2023-08-01T03:18:29;13.90;;;5.35;;
52432;SDS011;38352;53.244;6.594;2023-08-01T03:20:57;15.68;;;5.88;;
52432;SDS011;38352;53.244;6.594;2023-08-01T03:23:23;15.95;;;6.53;;
52432;SDS011;38352;53.244;6.594;2023-08-01T03:25:50;12.52;;;5.75;;
52432;SDS011;38352;53.244;6.594;2023-08-01T03:28:16;16.08;;;6.20;;
52432;SDS011;38352;53.244;6.594;2023-08-01T03:30:42;16.17;;;6.45;;
52432;SDS011;38352;53.244;6.594;2023-08-01T03:33:08;15.10;;;6.22;;
52432;SDS011;38352;53.244;6.594;2023-08-01T03:35:34;15.95;;;6.57;;
52432;SDS011;38352;53.244;6.594;2023-08-01T03:38:03;15.23;;;6.65;;
52432;SDS011;38352;53.244;6.594;2023-08-01T03:40:31;19.95;;;7.47;;
52432;SDS011;38352;53.244;6.594;2023-08-01T03:42:57;16.98;;;7.07;;
52432;SDS011;38352;53.244;6.594;2023-08-01T03:45:26;17.20;;;7.15;;
52432;SDS011;38352;53.244;6.594;2023-08-01T03:47:55;17.73;;;8.15;;
52432;SDS011;38352;53.244;6.594;2023-08-01T03:50:24;14.93;;;7.57;;
52432;SDS011;38352;53.244;6.594;2023-08-01T03:52:52;15.35;;;6.45;;
52432;SDS011;38352;53.244;6.594;2023-08-01T03:55:18;13.50;;;6.97;;
52432;SDS011;38352;53.244;6.594;2023-08-01T03:57:47;15.90;;;6.82;;
52432;SDS011;38352;53.244;6.594;2023-08-01T04:00:15;13.57;;;5.75;;
52432;SDS011;38352;53.244;6.594;2023-08-01T04:02:51;13.68;;;6.28;;
52432;SDS011;38352;53.244;6.594;2023-08-01T04:05:17;15.05;;;6.50;;
52432;SDS011;38352;53.244;6.594;2023-08-01T04:07:46;11.95;;;5.28;;
52432;SDS011;38352;53.244;6.594;2023-08-01T04:10:12;12.32;;;5.57;;
52432;SDS011;38352;53.244;6.594;2023-08-01T04:12:38;11.63;;;5.20;;
52432;SDS011;38352;53.244;6.594;2023-08-01T04:15:08;11.50;;;5.00;;
52432;SDS011;38352;53.244;6.594;2023-08-01T04:17:34;15.63;;;5.20;;
52432;SDS011;38352;53.244;6.594;2023-08-01T04:20:03;12.60;;;4.68;;
52432;SDS011;38352;53.244;6.594;2023-08-01T04:22:29;11.93;;;4.70;;
52432;SDS011;38352;53.244;6.594;2023-08-01T04:24:55;9.82;;;3.97;;
52432;SDS011;38352;53.244;6.594;2023-08-01T04:27:22;11.05;;;4.32;;
52432;SDS011;38352;53.244;6.594;2023-08-01T04:29:54;13.60;;;4.70;;
52432;SDS011;38352;53.244;6.594;2023-08-01T04:32:23;11.18;;;4.00;;
52432;SDS011;38352;53.244;6.594;2023-08-01T04:34:51;11.68;;;4.35;;
52432;SDS011;38352;53.244;6.594;2023-08-01T04:37:18;16.00;;;4.35;;
52432;SDS011;38352;53.244;6.594;2023-08-01T04:39:47;10.13;;;4.20;;
52432;SDS011;38352;53.244;6.594;2023-08-01T04:42:13;8.50;;;3.50;;
52432;SDS011;38352;53.244;6.594;2023-08-01T04:44:40;12.52;;;4.45;;
52432;SDS011;38352;53.244;6.594;2023-08-01T04:47:13;8.90;;;3.63;;
52432;SDS011;38352;53.244;6.594;2023-08-01T04:49:39;14.15;;;3.80;;
52432;SDS011;38352;53.244;6.594;2023-08-01T04:52:05;13.27;;;3.95;;
52432;SDS011;38352;53.244;6.594;2023-08-01T04:54:34;16.52;;;4.68;;
52432;SDS011;38352;53.244;6.594;2023-08-01T04:57:03;11.27;;;4.18;;
52432;SDS011;38352;53.244;6.594;2023-08-01T04:59:29;12.90;;;3.83;;
52432;SDS011;38352;53.244;6.594;2023-08-01T05:05:55;10.07;;;3.17;;
52432;SDS011;38352;53.244;6.594;2023-08-01T05:08:23;10.27;;;2.83;;
52432;SDS011;38352;53.244;6.594;2023-08-01T05:10:52;9.40;;;3.40;;
52432;SDS011;38352;53.244;6.594;2023-08-01T05:13:18;9.63;;;3.10;;
52432;SDS011;38352;53.244;6.594;2023-08-01T05:15:45;11.82;;;4.25;;
52432;SDS011;38352;53.244;6.594;2023-08-01T05:18:13;13.35;;;3.78;;
52432;SDS011;38352;53.244;6.594;2023-08-01T05:20:39;10.98;;;3.20;;
52432;SDS011;38352;53.244;6.594;2023-08-01T05:23:05;10.02;;;3.13;;
52432;SDS011;38352;53.244;6.594;2023-08-01T05:25:31;10.40;;;3.22;;
52432;SDS011;38352;53.244;6.594;2023-08-01T05:28:00;10.48;;;3.65;;
52432;SDS011;38352;53.244;6.594;2023-08-01T05:30:26;9.57;;;3.20;;
52432;SDS011;38352;53.244;6.594;2023-08-01T05:32:53;10.20;;;3.38;;
52432;SDS011;38352;53.244;6.594;2023-08-01T05:35:21;12.05;;;3.28;;
52432;SDS011;38352;53.244;6.594;2023-08-01T05:37:48;8.40;;;2.80;;
52432;SDS011;38352;53.244;6.594;2023-08-01T05:40:14;9.45;;;2.85;;
52432;SDS011;38352;53.244;6.594;2023-08-01T05:42:42;10.25;;;3.08;;
52432;SDS011;38352;53.244;6.594;2023-08-01T05:45:08;10.43;;;3.47;;
52432;SDS011;38352;53.244;6.594;2023-08-01T05:47:36;12.18;;;3.35;;
52432;SDS011;38352;53.244;6.594;2023-08-01T05:50:02;8.93;;;2.92;;
52432;SDS011;38352;53.244;6.594;2023-08-01T05:52:30;10.48;;;4.20;;
52432;SDS011;38352;53.244;6.594;2023-08-01T05:54:56;8.48;;;3.03;;
52432;SDS011;38352;53.244;6.594;2023-08-01T05:57:22;11.43;;;3.13;;
52432;SDS011;38352;53.244;6.594;2023-08-01T05:59:51;9.63;;;2.70;;
52432;SDS011;38352;53.244;6.594;2023-08-01T06:02:18;10.90;;;3.60;;
52432;SDS011;38352;53.244;6.594;2023-08-01T06:04:44;8.55;;;2.72;;
52432;SDS011;38352;53.244;6.594;2023-08-01T06:07:10;9.68;;;3.22;;
52432;SDS011;38352;53.244;6.594;2023-08-01T06:09:39;8.30;;;3.33;;
52432;SDS011;38352;53.244;6.594;2023-08-01T06:12:11;13.30;;;4.05;;
52432;SDS011;38352;53.244;6.594;2023-08-01T06:14:40;7.30;;;3.58;;
52432;SDS011;38352;53.244;6.594;2023-08-01T06:17:09;8.93;;;3.60;;
52432;SDS011;38352;53.244;6.594;2023-08-01T06:19:35;9.40;;;4.07;;
52432;SDS011;38352;53.244;6.594;2023-08-01T06:22:01;12.07;;;3.83;;
52432;SDS011;38352;53.244;6.594;2023-08-01T06:24:27;9.45;;;3.17;;
52432;SDS011;38352;53.244;6.594;2023-08-01T06:26:53;9.45;;;3.72;;
52432;SDS011;38352;53.244;6.594;2023-08-01T06:29:19;7.18;;;3.38;;
52432;SDS011;38352;53.244;6.594;2023-08-01T06:31:48;9.98;;;3.75;;
52432;SDS011;38352;53.244;6.594;2023-08-01T06:34:14;9.15;;;3.92;;
52432;SDS011;38352;53.244;6.594;2023-08-01T06:36:43;11.55;;;3.38;;
52432;SDS011;38352;53.244;6.594;2023-08-01T06:39:09;11.25;;;3.67;;
52432;SDS011;38352;53.244;6.594;2023-08-01T06:41:36;10.60;;;3.10;;
52432;SDS011;38352;53.244;6.594;2023-08-01T06:44:04;6.95;;;2.85;;
52432;SDS011;38352;53.244;6.594;2023-08-01T06:46:31;9.90;;;3.35;;
52432;SDS011;38352;53.244;6.594;2023-08-01T06:49:00;6.28;;;2.80;;
52432;SDS011;38352;53.244;6.594;2023-08-01T06:51:26;7.10;;;2.92;;
52432;SDS011;38352;53.244;6.594;2023-08-01T06:53:52;6.38;;;2.67;;
52432;SDS011;38352;53.244;6.594;2023-08-01T06:56:23;7.47;;;2.53;;
52432;SDS011;38352;53.244;6.594;2023-08-01T06:58:52;6.57;;;2.65;;
52432;SDS011;38352;53.244;6.594;2023-08-01T07:01:24;5.03;;;2.30;;
52432;SDS011;38352;53.244;6.594;2023-08-01T07:03:53;7.70;;;2.78;;
52432;SDS011;38352;53.244;6.594;2023-08-01T07:06:22;5.15;;;2.38;;
52432;SDS011;38352;53.244;6.594;2023-08-01T07:08:49;5.13;;;2.40;;
52432;SDS011;38352;53.244;6.594;2023-08-01T07:11:16;8.43;;;2.65;;
52432;SDS011;38352;53.244;6.594;2023-08-01T07:13:44;5.45;;;2.53;;
52432;SDS011;38352;53.244;6.594;2023-08-01T07:16:10;6.43;;;2.40;;
52432;SDS011;38352;53.244;6.594;2023-08-01T07:18:38;5.68;;;2.50;;
52432;SDS011;38352;53.244;6.594;2023-08-01T07:21:10;10.55;;;2.50;;
52432;SDS011;38352;53.244;6.594;2023-08-01T07:23:39;8.02;;;2.30;;
52432;SDS011;38352;53.244;6.594;2023-08-01T07:26:08;5.50;;;2.35;;
52432;SDS011;38352;53.244;6.594;2023-08-01T07:28:34;5.93;;;2.72;;
52432;SDS011;38352;53.244;6.594;2023-08-01T07:31:01;8.68;;;2.88;;
52432;SDS011;38352;53.244;6.594;2023-08-01T07:33:27;9.18;;;2.47;;
52432;SDS011;38352;53.244;6.594;2023-08-01T07:36:01;9.07;;;1.92;;
52432;SDS011;38352;53.244;6.594;2023-08-01T07:38:33;8.77;;;1.98;;
52432;SDS011;38352;53.244;6.594;2023-08-01T07:41:03;9.55;;;2.03;;
52432;SDS011;38352;53.244;6.594;2023-08-01T07:43:29;9.18;;;2.00;;
52432;SDS011;38352;53.244;6.594;2023-08-01T07:46:09;6.55;;;1.80;;
52432;SDS011;38352;53.244;6.594;2023-08-01T07:48:37;5.15;;;2.08;;
52432;SDS011;38352;53.244;6.594;2023-08-01T07:51:03;6.28;;;2.50;;
52432;SDS011;38352;53.244;6.594;2023-08-01T07:53:30;9.52;;;1.90;;
52432;SDS011;38352;53.244;6.594;2023-08-01T07:55:57;8.60;;;2.15;;
52432;SDS011;38352;53.244;6.594;2023-08-01T07:58:25;6.53;;;1.60;;
52432;SDS011;38352;53.244;6.594;2023-08-01T08:00:57;7.57;;;1.63;;
52432;SDS011;38352;53.244;6.594;2023-08-01T08:03:28;7.77;;;1.93;;
52432;SDS011;38352;53.244;6.594;2023-08-01T08:05:54;7.45;;;2.08;;
52432;SDS011;38352;53.244;6.594;2023-08-01T08:08:20;6.88;;;1.95;;
52432;SDS011;38352;53.244;6.594;2023-08-01T08:10:46;5.68;;;1.70;;
52432;SDS011;38352;53.244;6.594;2023-08-01T08:13:12;5.82;;;2.08;;
52432;SDS011;38352;53.244;6.594;2023-08-01T08:15:41;9.88;;;1.85;;
52432;SDS011;38352;53.244;6.594;2023-08-01T08:18:17;7.13;;;1.80;;
52432;SDS011;38352;53.244;6.594;2023-08-01T08:20:45;6.57;;;1.52;;
52432;SDS011;38352;53.244;6.594;2023-08-01T08:23:14;6.78;;;2.22;;
52432;SDS011;38352;53.244;6.594;2023-08-01T08:25:41;5.90;;;1.92;;
52432;SDS011;38352;53.244;6.594;2023-08-01T08:28:11;4.93;;;2.00;;
52432;SDS011;38352;53.244;6.594;2023-08-01T08:30:40;6.20;;;1.80;;
52432;SDS011;38352;53.244;6.594;2023-08-01T08:33:06;5.57;;;1.70;;
52432;SDS011;38352;53.244;6.594;2023-08-01T08:35:38;4.43;;;1.60;;
52432;SDS011;38352;53.244;6.594;2023-08-01T08:38:06;7.10;;;2.10;;
52432;SDS011;38352;53.244;6.594;2023-08-01T08:40:35;7.10;;;2.05;;
52432;SDS011;38352;53.244;6.594;2023-08-01T08:43:08;8.48;;;2.33;;
52432;SDS011;38352;53.244;6.594;2023-08-01T08:45:35;7.28;;;2.33;;
52432;SDS011;38352;53.244;6.594;2023-08-01T08:48:11;5.88;;;2.33;;
52432;SDS011;38352;53.244;6.594;2023-08-01T08:50:38;3.85;;;1.88;;
52432;SDS011;38352;53.244;6.594;2023-08-01T08:53:07;7.43;;;2.22;;
52432;SDS011;38352;53.244;6.594;2023-08-01T08:55:37;4.97;;;2.40;;
52432;SDS011;38352;53.244;6.594;2023-08-01T08:58:05;6.65;;;2.22;;
52432;SDS011;38352;53.244;6.594;2023-08-01T09:00:31;6.15;;;2.28;;
52432;SDS011;38352;53.244;6.594;2023-08-01T09:02:57;8.93;;;3.10;;
52432;SDS011;38352;53.244;6.594;2023-08-01T09:05:26;5.95;;;2.28;;
52432;SDS011;38352;53.244;6.594;2023-08-01T09:07:54;8.27;;;2.20;;
52432;SDS011;38352;53.244;6.594;2023-08-01T09:10:27;5.80;;;2.10;;
52432;SDS011;38352;53.244;6.594;2023-08-01T09:12:53;9.68;;;2.60;;
52432;SDS011;38352;53.244;6.594;2023-08-01T09:15:19;7.20;;;2.28;;
52432;SDS011;38352;53.244;6.594;2023-08-01T09:17:49;7.55;;;2.40;;
52432;SDS011;38352;53.244;6.594;2023-08-01T09:20:16;6.95;;;2.42;;
52432;SDS011;38352;53.244;6.594;2023-08-01T09:22:45;10.70;;;2.63;;
52432;SDS011;38352;53.244;6.594;2023-08-01T09:25:12;10.85;;;2.50;;
52432;SDS011;38352;53.244;6.594;2023-08-01T09:27:38;6.68;;;2.75;;
52432;SDS011;38352;53.244;6.594;2023-08-01T09:30:09;5.85;;;1.95;;
52432;SDS011;38352;53.244;6.594;2023-08-01T09:32:39;7.55;;;2.42;;
52432;SDS011;38352;53.244;6.594;2023-08-01T09:35:05;10.27;;;2.65;;
52432;SDS011;38352;53.244;6.594;2023-08-01T09:37:41;6.20;;;2.45;;
52432;SDS011;38352;53.244;6.594;2023-08-01T09:40:08;9.30;;;2.53;;
52432;SDS011;38352;53.244;6.594;2023-08-01T09:42:46;6.20;;;2.17;;
52432;SDS011;38352;53.244;6.594;2023-08-01T09:45:15;7.25;;;1.50;;
52432;SDS011;38352;53.244;6.594;2023-08-01T09:47:42;5.03;;;2.40;;
52432;SDS011;38352;53.244;6.594;2023-08-01T09:50:11;6.57;;;1.88;;
52432;SDS011;38352;53.244;6.594;2023-08-01T09:52:40;4.43;;;1.63;;
52432;SDS011;38352;53.244;6.594;2023-08-01T09:55:08;9.80;;;2.50;;
52432;SDS011;38352;53.244;6.594;2023-08-01T09:57:36;4.22;;;1.55;;
52432;SDS011;38352;53.244;6.594;2023-08-01T10:00:06;10.77;;;2.03;;
52432;SDS011;38352;53.244;6.594;2023-08-01T10:02:34;6.78;;;2.00;;
52432;SDS011;38352;53.244;6.594;2023-08-01T10:05:03;9.13;;;2.28;;
52432;SDS011;38352;53.244;6.594;2023-08-01T10:07:31;5.82;;;2.00;;
52432;SDS011;38352;53.244;6.594;2023-08-01T10:10:11;7.25;;;2.25;;
52432;SDS011;38352;53.244;6.594;2023-08-01T10:12:44;8.45;;;2.17;;
52432;SDS011;38352;53.244;6.594;2023-08-01T10:15:13;8.50;;;2.00;;
52432;SDS011;38352;53.244;6.594;2023-08-01T10:17:42;6.38;;;2.00;;
52432;SDS011;38352;53.244;6.594;2023-08-01T10:20:09;9.00;;;2.58;;
52432;SDS011;38352;53.244;6.594;2023-08-01T10:22:39;5.93;;;2.38;;
52432;SDS011;38352;53.244;6.594;2023-08-01T10:25:05;4.82;;;1.83;;
52432;SDS011;38352;53.244;6.594;2023-08-01T10:27:36;9.07;;;2.00;;
52432;SDS011;38352;53.244;6.594;2023-08-01T10:30:03;4.32;;;1.80;;
52432;SDS011;38352;53.244;6.594;2023-08-01T10:32:31;4.45;;;2.10;;
52432;SDS011;38352;53.244;6.594;2023-08-01T10:35:02;5.63;;;2.45;;
52432;SDS011;38352;53.244;6.594;2023-08-01T10:37:40;5.10;;;2.17;;
52432;SDS011;38352;53.244;6.594;2023-08-01T10:40:15;6.25;;;2.28;;
52432;SDS011;38352;53.244;6.594;2023-08-01T10:42:46;8.20;;;2.42;;
52432;SDS011;38352;53.244;6.594;2023-08-01T10:45:28;6.63;;;2.70;;
52432;SDS011;38352;53.244;6.594;2023-08-01T10:48:07;6.72;;;2.40;;
52432;SDS011;38352;53.244;6.594;2023-08-01T10:50:33;8.98;;;2.60;;
52432;SDS011;38352;53.244;6.594;2023-08-01T10:53:06;6.63;;;2.15;;
52432;SDS011;38352;53.244;6.594;2023-08-01T10:58:32;11.00;;;3.33;;
52432;SDS011;38352;53.244;6.594;2023-08-01T11:01:01;5.50;;;1.73;;
52432;SDS011;38352;53.244;6.594;2023-08-01T11:03:36;5.90;;;1.90;;
52432;SDS011;38352;53.244;6.594;2023-08-01T11:06:05;7.50;;;1.90;;
52432;SDS011;38352;53.244;6.594;2023-08-01T11:08:41;5.65;;;2.28;;
52432;SDS011;38352;53.244;6.594;2023-08-01T11:11:15;5.72;;;1.80;;
52432;SDS011;38352;53.244;6.594;2023-08-01T11:13:52;7.00;;;1.60;;
52432;SDS011;38352;53.244;6.594;2023-08-01T11:16:30;4.95;;;1.63;;
52432;SDS011;38352;53.244;6.594;2023-08-01T11:19:02;5.60;;;1.45;;
52432;SDS011;38352;53.244;6.594;2023-08-01T11:21:31;6.53;;;1.80;;
52432;SDS011;38352;53.244;6.594;2023-08-01T11:24:08;4.97;;;1.73;;
52432;SDS011;38352;53.244;6.594;2023-08-01T11:26:41;6.00;;;1.88;;
52432;SDS011;38352;53.244;6.594;2023-08-01T11:29:07;4.40;;;1.52;;
52432;SDS011;38352;53.244;6.594;2023-08-01T11:31:36;5.25;;;1.85;;
52432;SDS011;38352;53.244;6.594;2023-08-01T11:34:04;10.52;;;2.05;;
52432;SDS011;38352;53.244;6.594;2023-08-01T11:36:33;5.95;;;1.70;;
52432;SDS011;38352;53.244;6.594;2023-08-01T11:39:00;7.60;;;1.92;;
52432;SDS011;38352;53.244;6.594;2023-08-01T11:41:26;5.82;;;1.63;;
52432;SDS011;38352;53.244;6.594;2023-08-01T11:43:55;5.30;;;1.60;;
52432;SDS011;38352;53.244;6.594;2023-08-01T11:46:30;6.68;;;1.80;;
52432;SDS011;38352;53.244;6.594;2023-08-01T11:48:59;6.55;;;1.75;;
52432;SDS011;38352;53.244;6.594;2023-08-01T11:51:26;6.97;;;1.52;;
52432;SDS011;38352;53.244;6.594;2023-08-01T11:54:02;4.85;;;1.25;;
52432;SDS011;38352;53.244;6.594;2023-08-01T11:56:28;3.70;;;1.10;;
52432;SDS011;38352;53.244;6.594;2023-08-01T11:58:55;2.28;;;1.13;;
52432;SDS011;38352;53.244;6.594;2023-08-01T12:01:23;3.97;;;1.10;;
52432;SDS011;38352;53.244;6.594;2023-08-01T12:03:53;6.28;;;1.65;;
52432;SDS011;38352;53.244;6.594;2023-08-01T12:06:26;4.72;;;1.35;;
52432;SDS011;38352;53.244;6.594;2023-08-01T12:09:05;5.00;;;1.33;;
52432;SDS011;38352;53.244;6.594;2023-08-01T12:11:31;2.63;;;1.30;;
52432;SDS011;38352;53.244;6.594;2023-08-01T12:14:01;4.78;;;1.27;;
52432;SDS011;38352;53.244;6.594;2023-08-01T12:16:27;3.22;;;1.42;;
52432;SDS011;38352;53.244;6.594;2023-08-01T12:18:53;8.63;;;1.40;;
52432;SDS011;38352;53.244;6.594;2023-08-01T12:21:23;4.25;;;1.17;;
52432;SDS011;38352;53.244;6.594;2023-08-01T12:23:51;6.20;;;1.77;;
52432;SDS011;38352;53.244;6.594;2023-08-01T12:26:18;4.78;;;1.52;;
52432;SDS011;38352;53.244;6.594;2023-08-01T12:28:44;7.30;;;2.10;;
52432;SDS011;38352;53.244;6.594;2023-08-01T12:31:19;9.85;;;2.22;;
52432;SDS011;38352;53.244;6.594;2023-08-01T12:33:48;6.07;;;2.00;;
52432;SDS011;38352;53.244;6.594;2023-08-01T12:36:15;5.18;;;1.70;;
52432;SDS011;38352;53.244;6.594;2023-08-01T12:38:44;5.95;;;2.22;;
52432;SDS011;38352;53.244;6.594;2023-08-01T12:41:14;7.22;;;2.10;;
52432;SDS011;38352;53.244;6.594;2023-08-01T12:43:41;7.95;;;2.38;;
52432;SDS011;38352;53.244;6.594;2023-08-01T12:46:07;6.05;;;2.10;;
52432;SDS011;38352;53.244;6.594;2023-08-01T12:48:34;7.20;;;2.40;;
52432;SDS011;38352;53.244;6.594;2023-08-01T12:51:04;4.95;;;2.17;;
52432;SDS011;38352;53.244;6.594;2023-08-01T12:53:31;6.20;;;2.33;;
52432;SDS011;38352;53.244;6.594;2023-08-01T12:55:57;7.18;;;1.88;;
52432;SDS011;38352;53.244;6.594;2023-08-01T12:58:23;9.15;;;2.55;;
52432;SDS011;38352;53.244;6.594;2023-08-01T13:00:49;7.18;;;1.98;;
52432;SDS011;38352;53.244;6.594;2023-08-01T13:03:15;4.88;;;1.88;;
52432;SDS011;38352;53.244;6.594;2023-08-01T13:05:41;11.32;;;2.45;;
52432;SDS011;38352;53.244;6.594;2023-08-01T13:08:08;7.53;;;2.22;;
52432;SDS011;38352;53.244;6.594;2023-08-01T13:10:35;6.78;;;2.00;;
52432;SDS011;38352;53.244;6.594;2023-08-01T13:13:02;9.00;;;2.42;;
52432;SDS011;38352;53.244;6.594;2023-08-01T13:15:31;8.05;;;2.80;;
52432;SDS011;38352;53.244;6.594;2023-08-01T13:17:57;6.05;;;2.45;;
52432;SDS011;38352;53.244;6.594;2023-08-01T13:20:32;7.43;;;2.53;;
52432;SDS011;38352;53.244;6.594;2023-08-01T13:22:58;5.93;;;2.17;;
52432;SDS011;38352;53.244;6.594;2023-08-01T13:25:24;11.98;;;2.35;;
52432;SDS011;38352;53.244;6.594;2023-08-01T13:27:50;10.07;;;2.67;;
52432;SDS011;38352;53.244;6.594;2023-08-01T13:30:16;5.13;;;1.80;;
52432;SDS011;38352;53.244;6.594;2023-08-01T13:32:45;4.07;;;1.50;;
52432;SDS011;38352;53.244;6.594;2023-08-01T13:35:14;5.57;;;1.70;;
52432;SDS011;38352;53.244;6.594;2023-08-01T13:37:40;5.25;;;1.52;;
52432;SDS011;38352;53.244;6.594;2023-08-01T13:40:09;7.78;;;1.90;;
52432;SDS011;38352;53.244;6.594;2023-08-01T13:42:40;3.60;;;1.77;;
52432;SDS011;38352;53.244;6.594;2023-08-01T13:45:06;5.72;;;1.73;;
52432;SDS011;38352;53.244;6.594;2023-08-01T13:47:32;3.25;;;1.60;;
52432;SDS011;38352;53.244;6.594;2023-08-01T13:49:58;4.90;;;1.50;;
52432;SDS011;38352;53.244;6.594;2023-08-01T13:52:25;7.03;;;2.10;;
52432;SDS011;38352;53.244;6.594;2023-08-01T13:54:51;7.28;;;1.80;;
52432;SDS011;38352;53.244;6.594;2023-08-01T13:57:19;5.20;;;2.10;;
52432;SDS011;38352;53.244;6.594;2023-08-01T13:59:48;4.07;;;1.42;;
52432;SDS011;38352;53.244;6.594;2023-08-01T14:02:19;3.65;;;1.70;;
52432;SDS011;38352;53.244;6.594;2023-08-01T14:04:50;5.13;;;2.05;;
52432;SDS011;38352;53.244;6.594;2023-08-01T14:07:20;7.32;;;1.92;;
52432;SDS011;38352;53.244;6.594;2023-08-01T14:09:46;5.45;;;2.30;;
52432;SDS011;38352;53.244;6.594;2023-08-01T14:12:12;3.35;;;1.85;;
52432;SDS011;38352;53.244;6.594;2023-08-01T14:14:41;5.88;;;1.77;;
52432;SDS011;38352;53.244;6.594;2023-08-01T14:17:07;6.47;;;2.45;;
52432;SDS011;38352;53.244;6.594;2023-08-01T14:19:33;4.80;;;1.70;;
52432;SDS011;38352;53.244;6.594;2023-08-01T14:22:02;3.95;;;1.40;;
52432;SDS011;38352;53.244;6.594;2023-08-01T14:24:35;5.50;;;1.70;;
52432;SDS011;38352;53.244;6.594;2023-08-01T14:27:02;4.97;;;1.60;;
52432;SDS011;38352;53.244;6.594;2023-08-01T14:29:35;4.47;;;1.92;;
52432;SDS011;38352;53.244;6.594;2023-08-01T14:32:04;10.30;;;2.78;;
52432;SDS011;38352;53.244;6.594;2023-08-01T14:34:30;5.65;;;2.10;;
52432;SDS011;38352;53.244;6.594;2023-08-01T14:36:59;9.07;;;1.85;;
52432;SDS011;38352;53.244;6.594;2023-08-01T14:39:28;6.28;;;1.70;;
52432;SDS011;38352;53.244;6.594;2023-08-01T14:41:55;6.97;;;2.45;;
52432;SDS011;38352;53.244;6.594;2023-08-01T14:44:21;4.97;;;2.53;;
52432;SDS011;38352;53.244;6.594;2023-08-01T14:46:49;6.78;;;2.80;;
52432;SDS011;38352;53.244;6.594;2023-08-01T14:49:16;6.03;;;2.72;;
52432;SDS011;38352;53.244;6.594;2023-08-01T14:51:42;7.70;;;2.72;;
52432;SDS011;38352;53.244;6.594;2023-08-01T14:54:08;8.38;;;3.13;;
52432;SDS011;38352;53.244;6.594;2023-08-01T14:56:34;5.65;;;2.90;;